Springboro, Ohio
Current Conditions -  °F | °C
As of 3:53 AM on Wednesday 26 Nov 2014 (Local Time) from KMGY Reporting Station
Overcast Overcast  
Wind Chill: 21°   Ceiling: 1300
Heat Index: 29°   Visibility: 10mi
Dew Point: 25°   Wind: 8mph
Humidity: 85%   Direction: 70°ENE
Pressure: 30.13"   Gusts: NA
Location:  39.56°N, 84.23°W
Report Text: KMGY 260853Z AUTO 07007KT 10SM OVC013 M02/M04 A3013 RMK AO2 SLP211 T10171039 58005
Loading
Personal Weather Stations






























Interactive Weather Map New forecast layout! Learn more

10-Day Weather Forecast

Advertisements
Track Severe Weather on mobile